sensor_id;sensor_type;location;lat;lon;timestamp;P1;durP1;ratioP1;P2;durP2;ratioP2
4839;SDS011;2434;48.486;7.964;2023-05-07T00:01:46;4.90;;;2.63;;
4839;SDS011;2434;48.486;7.964;2023-05-07T00:04:14;4.10;;;2.70;;
4839;SDS011;2434;48.486;7.964;2023-05-07T00:06:43;5.70;;;2.97;;
4839;SDS011;2434;48.486;7.964;2023-05-07T00:09:11;5.10;;;2.47;;
4839;SDS011;2434;48.486;7.964;2023-05-07T00:11:39;7.70;;;2.47;;
4839;SDS011;2434;48.486;7.964;2023-05-07T00:14:09;3.03;;;2.23;;
4839;SDS011;2434;48.486;7.964;2023-05-07T00:16:37;4.07;;;2.40;;
4839;SDS011;2434;48.486;7.964;2023-05-07T00:19:05;3.20;;;2.33;;
4839;SDS011;2434;48.486;7.964;2023-05-07T00:21:33;5.13;;;2.53;;
4839;SDS011;2434;48.486;7.964;2023-05-07T00:24:02;4.40;;;2.90;;
4839;SDS011;2434;48.486;7.964;2023-05-07T00:26:30;4.40;;;3.17;;
4839;SDS011;2434;48.486;7.964;2023-05-07T00:28:59;4.53;;;3.10;;
4839;SDS011;2434;48.486;7.964;2023-05-07T00:31:28;4.20;;;2.17;;
4839;SDS011;2434;48.486;7.964;2023-05-07T00:33:56;3.07;;;2.30;;
4839;SDS011;2434;48.486;7.964;2023-05-07T00:36:24;3.00;;;2.07;;
4839;SDS011;2434;48.486;7.964;2023-05-07T00:38:53;2.03;;;1.73;;
4839;SDS011;2434;48.486;7.964;2023-05-07T00:41:22;2.73;;;1.63;;
4839;SDS011;2434;48.486;7.964;2023-05-07T00:43:51;3.50;;;2.10;;
4839;SDS011;2434;48.486;7.964;2023-05-07T00:46:19;5.93;;;2.10;;
4839;SDS011;2434;48.486;7.964;2023-05-07T00:48:50;2.47;;;1.90;;
4839;SDS011;2434;48.486;7.964;2023-05-07T00:51:19;3.13;;;2.20;;
4839;SDS011;2434;48.486;7.964;2023-05-07T00:53:47;5.10;;;2.57;;
4839;SDS011;2434;48.486;7.964;2023-05-07T00:56:16;8.90;;;2.77;;
4839;SDS011;2434;48.486;7.964;2023-05-07T00:58:44;3.47;;;2.20;;
4839;SDS011;2434;48.486;7.964;2023-05-07T01:01:12;5.07;;;2.80;;
4839;SDS011;2434;48.486;7.964;2023-05-07T01:03:42;3.30;;;2.37;;
4839;SDS011;2434;48.486;7.964;2023-05-07T01:06:12;4.60;;;2.27;;
4839;SDS011;2434;48.486;7.964;2023-05-07T01:08:43;5.27;;;2.40;;
4839;SDS011;2434;48.486;7.964;2023-05-07T01:11:13;3.73;;;2.50;;
4839;SDS011;2434;48.486;7.964;2023-05-07T01:13:42;4.10;;;2.33;;
4839;SDS011;2434;48.486;7.964;2023-05-07T01:16:11;13.23;;;2.43;;
4839;SDS011;2434;48.486;7.964;2023-05-07T01:18:40;4.23;;;2.17;;
4839;SDS011;2434;48.486;7.964;2023-05-07T01:21:10;4.40;;;3.03;;
4839;SDS011;2434;48.486;7.964;2023-05-07T01:23:45;2.80;;;2.17;;
4839;SDS011;2434;48.486;7.964;2023-05-07T01:26:14;3.30;;;2.80;;
4839;SDS011;2434;48.486;7.964;2023-05-07T01:28:44;3.17;;;2.50;;
4839;SDS011;2434;48.486;7.964;2023-05-07T01:31:12;3.07;;;2.20;;
4839;SDS011;2434;48.486;7.964;2023-05-07T01:33:44;5.50;;;2.63;;
4839;SDS011;2434;48.486;7.964;2023-05-07T01:36:13;5.13;;;2.77;;
4839;SDS011;2434;48.486;7.964;2023-05-07T01:38:45;5.80;;;2.60;;
4839;SDS011;2434;48.486;7.964;2023-05-07T01:41:13;6.50;;;2.50;;
4839;SDS011;2434;48.486;7.964;2023-05-07T01:43:42;3.20;;;2.30;;
4839;SDS011;2434;48.486;7.964;2023-05-07T01:46:10;6.80;;;3.03;;
4839;SDS011;2434;48.486;7.964;2023-05-07T01:48:39;3.83;;;2.67;;
4839;SDS011;2434;48.486;7.964;2023-05-07T01:51:08;4.30;;;2.47;;
4839;SDS011;2434;48.486;7.964;2023-05-07T01:53:36;3.53;;;2.47;;
4839;SDS011;2434;48.486;7.964;2023-05-07T01:56:07;5.30;;;2.40;;
4839;SDS011;2434;48.486;7.964;2023-05-07T01:58:38;5.30;;;3.10;;
4839;SDS011;2434;48.486;7.964;2023-05-07T02:01:07;5.83;;;2.53;;
4839;SDS011;2434;48.486;7.964;2023-05-07T02:03:36;10.30;;;2.80;;
4839;SDS011;2434;48.486;7.964;2023-05-07T02:06:11;4.73;;;3.00;;
4839;SDS011;2434;48.486;7.964;2023-05-07T02:08:40;2.93;;;2.60;;
4839;SDS011;2434;48.486;7.964;2023-05-07T02:11:11;6.73;;;3.47;;
4839;SDS011;2434;48.486;7.964;2023-05-07T02:13:39;5.70;;;2.70;;
4839;SDS011;2434;48.486;7.964;2023-05-07T02:16:07;5.67;;;2.70;;
4839;SDS011;2434;48.486;7.964;2023-05-07T02:18:38;5.20;;;2.90;;
4839;SDS011;2434;48.486;7.964;2023-05-07T02:21:06;7.13;;;3.43;;
4839;SDS011;2434;48.486;7.964;2023-05-07T02:23:34;4.20;;;3.27;;
4839;SDS011;2434;48.486;7.964;2023-05-07T02:26:03;5.17;;;2.80;;
4839;SDS011;2434;48.486;7.964;2023-05-07T02:31:04;8.03;;;2.80;;
4839;SDS011;2434;48.486;7.964;2023-05-07T02:33:33;4.87;;;3.40;;
4839;SDS011;2434;48.486;7.964;2023-05-07T02:36:06;4.03;;;3.13;;
4839;SDS011;2434;48.486;7.964;2023-05-07T02:38:39;6.63;;;3.93;;
4839;SDS011;2434;48.486;7.964;2023-05-07T02:41:08;4.00;;;3.50;;
4839;SDS011;2434;48.486;7.964;2023-05-07T02:43:37;5.87;;;3.30;;
4839;SDS011;2434;48.486;7.964;2023-05-07T02:46:06;5.17;;;3.13;;
4839;SDS011;2434;48.486;7.964;2023-05-07T02:48:39;8.67;;;4.33;;
4839;SDS011;2434;48.486;7.964;2023-05-07T02:51:07;4.47;;;3.37;;
4839;SDS011;2434;48.486;7.964;2023-05-07T02:53:38;4.37;;;3.10;;
4839;SDS011;2434;48.486;7.964;2023-05-07T02:56:06;4.57;;;3.00;;
4839;SDS011;2434;48.486;7.964;2023-05-07T02:58:34;5.77;;;2.90;;
4839;SDS011;2434;48.486;7.964;2023-05-07T03:01:04;3.73;;;2.80;;
4839;SDS011;2434;48.486;7.964;2023-05-07T03:03:59;3.20;;;2.77;;
4839;SDS011;2434;48.486;7.964;2023-05-07T03:06:27;3.30;;;2.33;;
4839;SDS011;2434;48.486;7.964;2023-05-07T03:08:55;3.40;;;2.70;;
4839;SDS011;2434;48.486;7.964;2023-05-07T03:11:24;3.40;;;2.67;;
4839;SDS011;2434;48.486;7.964;2023-05-07T03:13:52;3.50;;;2.50;;
4839;SDS011;2434;48.486;7.964;2023-05-07T03:16:22;8.80;;;2.87;;
4839;SDS011;2434;48.486;7.964;2023-05-07T03:18:51;3.53;;;2.83;;
4839;SDS011;2434;48.486;7.964;2023-05-07T03:21:20;4.20;;;2.63;;
4839;SDS011;2434;48.486;7.964;2023-05-07T03:23:48;3.27;;;2.70;;
4839;SDS011;2434;48.486;7.964;2023-05-07T03:26:16;5.03;;;2.70;;
4839;SDS011;2434;48.486;7.964;2023-05-07T03:28:45;3.50;;;2.80;;
4839;SDS011;2434;48.486;7.964;2023-05-07T03:31:15;5.23;;;3.07;;
4839;SDS011;2434;48.486;7.964;2023-05-07T03:33:52;4.03;;;2.80;;
4839;SDS011;2434;48.486;7.964;2023-05-07T03:36:21;4.50;;;2.83;;
4839;SDS011;2434;48.486;7.964;2023-05-07T03:38:49;3.83;;;3.40;;
4839;SDS011;2434;48.486;7.964;2023-05-07T03:41:21;3.77;;;2.83;;
4839;SDS011;2434;48.486;7.964;2023-05-07T03:43:50;2.87;;;2.40;;
4839;SDS011;2434;48.486;7.964;2023-05-07T03:46:18;3.43;;;2.50;;
4839;SDS011;2434;48.486;7.964;2023-05-07T03:48:47;4.90;;;2.87;;
4839;SDS011;2434;48.486;7.964;2023-05-07T03:51:17;3.80;;;2.77;;
4839;SDS011;2434;48.486;7.964;2023-05-07T03:53:45;3.60;;;2.80;;
4839;SDS011;2434;48.486;7.964;2023-05-07T03:56:14;4.10;;;2.73;;
4839;SDS011;2434;48.486;7.964;2023-05-07T03:58:45;4.07;;;3.27;;
4839;SDS011;2434;48.486;7.964;2023-05-07T04:01:15;4.83;;;3.10;;
4839;SDS011;2434;48.486;7.964;2023-05-07T04:03:43;3.30;;;2.40;;
4839;SDS011;2434;48.486;7.964;2023-05-07T04:06:12;5.53;;;2.60;;
4839;SDS011;2434;48.486;7.964;2023-05-07T04:08:44;3.30;;;2.73;;
4839;SDS011;2434;48.486;7.964;2023-05-07T04:11:13;3.07;;;2.50;;
4839;SDS011;2434;48.486;7.964;2023-05-07T04:13:41;4.70;;;3.27;;
4839;SDS011;2434;48.486;7.964;2023-05-07T04:16:09;4.40;;;3.40;;
4839;SDS011;2434;48.486;7.964;2023-05-07T04:18:38;4.93;;;3.53;;
4839;SDS011;2434;48.486;7.964;2023-05-07T04:21:08;4.83;;;3.47;;
4839;SDS011;2434;48.486;7.964;2023-05-07T04:23:41;5.10;;;2.97;;
4839;SDS011;2434;48.486;7.964;2023-05-07T04:26:12;3.80;;;3.10;;
4839;SDS011;2434;48.486;7.964;2023-05-07T04:28:43;4.93;;;2.80;;
4839;SDS011;2434;48.486;7.964;2023-05-07T04:31:11;4.67;;;3.10;;
4839;SDS011;2434;48.486;7.964;2023-05-07T04:33:40;4.27;;;2.93;;
4839;SDS011;2434;48.486;7.964;2023-05-07T04:36:11;4.00;;;2.90;;
4839;SDS011;2434;48.486;7.964;2023-05-07T04:38:48;3.40;;;3.10;;
4839;SDS011;2434;48.486;7.964;2023-05-07T04:41:19;7.63;;;3.80;;
4839;SDS011;2434;48.486;7.964;2023-05-07T04:43:48;5.10;;;3.27;;
4839;SDS011;2434;48.486;7.964;2023-05-07T04:46:21;6.13;;;3.50;;
4839;SDS011;2434;48.486;7.964;2023-05-07T04:48:50;5.87;;;3.30;;
4839;SDS011;2434;48.486;7.964;2023-05-07T04:51:19;3.33;;;2.87;;
4839;SDS011;2434;48.486;7.964;2023-05-07T04:53:47;6.87;;;3.20;;
4839;SDS011;2434;48.486;7.964;2023-05-07T04:56:16;3.70;;;2.93;;
4839;SDS011;2434;48.486;7.964;2023-05-07T04:58:48;5.90;;;3.40;;
4839;SDS011;2434;48.486;7.964;2023-05-07T05:01:19;8.57;;;3.80;;
4839;SDS011;2434;48.486;7.964;2023-05-07T05:03:47;5.03;;;3.03;;
4839;SDS011;2434;48.486;7.964;2023-05-07T05:06:16;3.90;;;3.40;;
4839;SDS011;2434;48.486;7.964;2023-05-07T05:08:44;3.80;;;3.33;;
4839;SDS011;2434;48.486;7.964;2023-05-07T05:11:13;4.33;;;2.70;;
4839;SDS011;2434;48.486;7.964;2023-05-07T05:13:41;4.27;;;3.10;;
4839;SDS011;2434;48.486;7.964;2023-05-07T05:16:16;5.10;;;3.40;;
4839;SDS011;2434;48.486;7.964;2023-05-07T05:18:45;3.40;;;3.10;;
4839;SDS011;2434;48.486;7.964;2023-05-07T05:21:16;9.00;;;2.93;;
4839;SDS011;2434;48.486;7.964;2023-05-07T05:23:47;8.60;;;3.53;;
4839;SDS011;2434;48.486;7.964;2023-05-07T05:26:19;7.23;;;3.07;;
4839;SDS011;2434;48.486;7.964;2023-05-07T05:28:48;3.60;;;2.73;;
4839;SDS011;2434;48.486;7.964;2023-05-07T05:31:21;3.97;;;3.00;;
4839;SDS011;2434;48.486;7.964;2023-05-07T05:33:50;4.93;;;2.97;;
4839;SDS011;2434;48.486;7.964;2023-05-07T05:36:18;5.93;;;3.57;;
4839;SDS011;2434;48.486;7.964;2023-05-07T05:38:48;3.40;;;2.80;;
4839;SDS011;2434;48.486;7.964;2023-05-07T05:41:17;4.00;;;2.90;;
4839;SDS011;2434;48.486;7.964;2023-05-07T05:43:45;4.23;;;3.03;;
4839;SDS011;2434;48.486;7.964;2023-05-07T05:46:14;4.47;;;3.37;;
4839;SDS011;2434;48.486;7.964;2023-05-07T05:48:44;6.63;;;3.70;;
4839;SDS011;2434;48.486;7.964;2023-05-07T05:51:12;4.57;;;3.23;;
4839;SDS011;2434;48.486;7.964;2023-05-07T05:53:41;8.63;;;3.23;;
4839;SDS011;2434;48.486;7.964;2023-05-07T05:56:09;5.90;;;3.00;;
4839;SDS011;2434;48.486;7.964;2023-05-07T05:58:40;4.63;;;3.40;;
4839;SDS011;2434;48.486;7.964;2023-05-07T06:01:08;3.60;;;3.20;;
4839;SDS011;2434;48.486;7.964;2023-05-07T06:03:37;7.17;;;4.00;;
4839;SDS011;2434;48.486;7.964;2023-05-07T06:06:13;6.47;;;3.80;;
4839;SDS011;2434;48.486;7.964;2023-05-07T06:08:43;6.00;;;4.57;;
4839;SDS011;2434;48.486;7.964;2023-05-07T06:11:15;7.33;;;3.93;;
4839;SDS011;2434;48.486;7.964;2023-05-07T06:13:45;5.80;;;4.00;;
4839;SDS011;2434;48.486;7.964;2023-05-07T06:16:13;4.00;;;3.60;;
4839;SDS011;2434;48.486;7.964;2023-05-07T06:18:43;8.80;;;4.10;;
4839;SDS011;2434;48.486;7.964;2023-05-07T06:21:15;11.00;;;4.90;;
4839;SDS011;2434;48.486;7.964;2023-05-07T06:23:43;10.97;;;3.80;;
4839;SDS011;2434;48.486;7.964;2023-05-07T06:26:12;7.23;;;4.10;;
4839;SDS011;2434;48.486;7.964;2023-05-07T06:28:44;5.60;;;3.80;;
4839;SDS011;2434;48.486;7.964;2023-05-07T06:31:14;6.73;;;3.90;;
4839;SDS011;2434;48.486;7.964;2023-05-07T06:33:50;5.60;;;3.70;;
4839;SDS011;2434;48.486;7.964;2023-05-07T06:36:23;5.90;;;3.70;;
4839;SDS011;2434;48.486;7.964;2023-05-07T06:38:53;5.60;;;4.40;;
4839;SDS011;2434;48.486;7.964;2023-05-07T06:41:22;5.37;;;3.70;;
4839;SDS011;2434;48.486;7.964;2023-05-07T06:43:50;4.70;;;3.97;;
4839;SDS011;2434;48.486;7.964;2023-05-07T06:46:30;4.53;;;3.70;;
4839;SDS011;2434;48.486;7.964;2023-05-07T06:48:59;5.40;;;3.80;;
4839;SDS011;2434;48.486;7.964;2023-05-07T06:51:29;4.80;;;3.67;;
4839;SDS011;2434;48.486;7.964;2023-05-07T06:54:01;6.80;;;3.87;;
4839;SDS011;2434;48.486;7.964;2023-05-07T06:56:32;5.90;;;3.97;;
4839;SDS011;2434;48.486;7.964;2023-05-07T06:59:02;4.10;;;3.27;;
4839;SDS011;2434;48.486;7.964;2023-05-07T07:01:35;5.07;;;3.50;;
4839;SDS011;2434;48.486;7.964;2023-05-07T07:04:05;4.40;;;3.53;;
4839;SDS011;2434;48.486;7.964;2023-05-07T07:06:35;6.80;;;3.53;;
4839;SDS011;2434;48.486;7.964;2023-05-07T07:09:08;3.70;;;3.30;;
4839;SDS011;2434;48.486;7.964;2023-05-07T07:11:37;3.90;;;3.30;;
4839;SDS011;2434;48.486;7.964;2023-05-07T07:14:06;4.53;;;3.77;;
4839;SDS011;2434;48.486;7.964;2023-05-07T07:16:43;5.10;;;4.00;;
4839;SDS011;2434;48.486;7.964;2023-05-07T07:19:15;11.23;;;4.23;;
4839;SDS011;2434;48.486;7.964;2023-05-07T07:21:47;8.20;;;3.90;;
4839;SDS011;2434;48.486;7.964;2023-05-07T07:24:16;7.07;;;3.80;;
4839;SDS011;2434;48.486;7.964;2023-05-07T07:26:51;6.53;;;4.17;;
4839;SDS011;2434;48.486;7.964;2023-05-07T07:29:23;5.50;;;4.70;;
4839;SDS011;2434;48.486;7.964;2023-05-07T07:31:53;8.33;;;4.97;;
4839;SDS011;2434;48.486;7.964;2023-05-07T07:34:21;8.30;;;5.30;;
4839;SDS011;2434;48.486;7.964;2023-05-07T07:36:51;7.83;;;5.00;;
4839;SDS011;2434;48.486;7.964;2023-05-07T07:39:19;6.83;;;4.97;;
4839;SDS011;2434;48.486;7.964;2023-05-07T07:41:51;6.87;;;4.77;;
4839;SDS011;2434;48.486;7.964;2023-05-07T07:44:21;6.73;;;4.60;;
4839;SDS011;2434;48.486;7.964;2023-05-07T07:46:55;8.80;;;5.33;;
4839;SDS011;2434;48.486;7.964;2023-05-07T07:49:25;8.80;;;4.70;;
4839;SDS011;2434;48.486;7.964;2023-05-07T07:51:56;8.50;;;4.87;;
4839;SDS011;2434;48.486;7.964;2023-05-07T07:54:26;4.87;;;4.20;;
4839;SDS011;2434;48.486;7.964;2023-05-07T07:56:56;8.80;;;5.37;;
4839;SDS011;2434;48.486;7.964;2023-05-07T07:59:25;6.53;;;4.27;;
4839;SDS011;2434;48.486;7.964;2023-05-07T08:01:54;7.23;;;4.90;;
4839;SDS011;2434;48.486;7.964;2023-05-07T08:04:25;9.57;;;5.00;;
4839;SDS011;2434;48.486;7.964;2023-05-07T08:06:56;8.40;;;4.47;;
4839;SDS011;2434;48.486;7.964;2023-05-07T08:09:25;7.80;;;5.27;;
4839;SDS011;2434;48.486;7.964;2023-05-07T08:11:54;6.60;;;4.60;;
4839;SDS011;2434;48.486;7.964;2023-05-07T08:14:22;5.03;;;4.53;;
4839;SDS011;2434;48.486;7.964;2023-05-07T08:16:51;6.37;;;5.20;;
4839;SDS011;2434;48.486;7.964;2023-05-07T08:19:19;9.87;;;5.43;;
4839;SDS011;2434;48.486;7.964;2023-05-07T08:21:48;6.33;;;4.97;;
4839;SDS011;2434;48.486;7.964;2023-05-07T08:24:19;7.30;;;6.03;;
4839;SDS011;2434;48.486;7.964;2023-05-07T08:26:47;7.67;;;4.80;;
4839;SDS011;2434;48.486;7.964;2023-05-07T08:29:16;7.27;;;5.37;;
4839;SDS011;2434;48.486;7.964;2023-05-07T08:31:45;8.67;;;6.00;;
4839;SDS011;2434;48.486;7.964;2023-05-07T08:34:13;13.63;;;5.20;;
4839;SDS011;2434;48.486;7.964;2023-05-07T08:36:44;6.03;;;5.23;;
4839;SDS011;2434;48.486;7.964;2023-05-07T08:39:18;6.00;;;5.10;;
4839;SDS011;2434;48.486;7.964;2023-05-07T08:41:49;5.77;;;4.93;;
4839;SDS011;2434;48.486;7.964;2023-05-07T08:44:23;6.27;;;4.70;;
4839;SDS011;2434;48.486;7.964;2023-05-07T08:46:56;5.83;;;4.93;;
4839;SDS011;2434;48.486;7.964;2023-05-07T08:49:26;6.00;;;4.20;;
4839;SDS011;2434;48.486;7.964;2023-05-07T08:51:55;8.10;;;4.87;;
4839;SDS011;2434;48.486;7.964;2023-05-07T08:54:25;5.23;;;4.60;;
4839;SDS011;2434;48.486;7.964;2023-05-07T08:56:56;10.07;;;5.00;;
4839;SDS011;2434;48.486;7.964;2023-05-07T08:59:25;6.43;;;4.50;;
4839;SDS011;2434;48.486;7.964;2023-05-07T09:01:53;5.57;;;4.67;;
4839;SDS011;2434;48.486;7.964;2023-05-07T09:04:22;7.63;;;5.00;;
4839;SDS011;2434;48.486;7.964;2023-05-07T09:06:50;5.63;;;4.10;;
4839;SDS011;2434;48.486;7.964;2023-05-07T09:09:21;8.10;;;4.13;;
4839;SDS011;2434;48.486;7.964;2023-05-07T09:11:57;5.17;;;4.23;;
4839;SDS011;2434;48.486;7.964;2023-05-07T09:14:29;7.73;;;4.03;;
4839;SDS011;2434;48.486;7.964;2023-05-07T09:16:58;6.60;;;3.70;;
4839;SDS011;2434;48.486;7.964;2023-05-07T09:19:27;5.40;;;3.33;;
4839;SDS011;2434;48.486;7.964;2023-05-07T09:21:58;7.17;;;3.43;;
4839;SDS011;2434;48.486;7.964;2023-05-07T09:24:30;5.10;;;3.20;;
4839;SDS011;2434;48.486;7.964;2023-05-07T09:27:04;4.67;;;3.60;;
4839;SDS011;2434;48.486;7.964;2023-05-07T09:29:35;5.33;;;3.27;;
4839;SDS011;2434;48.486;7.964;2023-05-07T09:32:05;10.73;;;3.67;;
4839;SDS011;2434;48.486;7.964;2023-05-07T09:34:35;4.90;;;3.30;;
4839;SDS011;2434;48.486;7.964;2023-05-07T09:37:05;4.30;;;3.37;;
4839;SDS011;2434;48.486;7.964;2023-05-07T09:39:40;4.50;;;3.87;;
4839;SDS011;2434;48.486;7.964;2023-05-07T09:42:11;4.50;;;3.10;;
4839;SDS011;2434;48.486;7.964;2023-05-07T09:44:42;5.53;;;3.50;;
4839;SDS011;2434;48.486;7.964;2023-05-07T10:02:32;6.70;;;4.60;;
4839;SDS011;2434;48.486;7.964;2023-05-07T10:05:04;6.50;;;3.97;;
4839;SDS011;2434;48.486;7.964;2023-05-07T10:07:33;6.90;;;3.97;;
4839;SDS011;2434;48.486;7.964;2023-05-07T10:10:08;6.33;;;4.43;;
4839;SDS011;2434;48.486;7.964;2023-05-07T10:12:41;7.47;;;4.03;;
4839;SDS011;2434;48.486;7.964;2023-05-07T10:15:15;5.53;;;4.30;;
4839;SDS011;2434;48.486;7.964;2023-05-07T10:17:49;4.73;;;4.30;;
4839;SDS011;2434;48.486;7.964;2023-05-07T10:20:19;8.03;;;4.23;;
4839;SDS011;2434;48.486;7.964;2023-05-07T10:22:48;8.50;;;4.50;;
4839;SDS011;2434;48.486;7.964;2023-05-07T10:25:25;6.60;;;3.70;;
4839;SDS011;2434;48.486;7.964;2023-05-07T10:28:03;3.73;;;3.30;;
4839;SDS011;2434;48.486;7.964;2023-05-07T10:30:38;5.23;;;3.67;;
4839;SDS011;2434;48.486;7.964;2023-05-07T10:33:18;4.80;;;4.13;;
4839;SDS011;2434;48.486;7.964;2023-05-07T10:35:49;5.43;;;3.80;;
4839;SDS011;2434;48.486;7.964;2023-05-07T10:38:18;6.63;;;3.60;;
4839;SDS011;2434;48.486;7.964;2023-05-07T10:40:47;5.67;;;4.53;;
4839;SDS011;2434;48.486;7.964;2023-05-07T10:43:16;6.93;;;4.40;;
4839;SDS011;2434;48.486;7.964;2023-05-07T10:46:09;7.37;;;4.17;;
4839;SDS011;2434;48.486;7.964;2023-05-07T10:55:21;6.17;;;4.17;;
4839;SDS011;2434;48.486;7.964;2023-05-07T11:01:15;5.07;;;3.47;;
4839;SDS011;2434;48.486;7.964;2023-05-07T11:04:39;4.80;;;3.33;;
4839;SDS011;2434;48.486;7.964;2023-05-07T11:07:24;7.93;;;2.80;;
4839;SDS011;2434;48.486;7.964;2023-05-07T11:10:03;3.90;;;3.07;;
4839;SDS011;2434;48.486;7.964;2023-05-07T11:12:50;9.30;;;4.10;;
4839;SDS011;2434;48.486;7.964;2023-05-07T11:21:22;9.20;;;2.87;;
4839;SDS011;2434;48.486;7.964;2023-05-07T11:24:07;6.27;;;3.40;;
4839;SDS011;2434;48.486;7.964;2023-05-07T11:26:47;8.60;;;4.30;;
4839;SDS011;2434;48.486;7.964;2023-05-07T11:29:20;4.03;;;3.00;;
4839;SDS011;2434;48.486;7.964;2023-05-07T11:31:55;6.43;;;2.77;;
4839;SDS011;2434;48.486;7.964;2023-05-07T11:34:29;6.27;;;2.83;;
4839;SDS011;2434;48.486;7.964;2023-05-07T11:36:59;2.87;;;2.50;;
4839;SDS011;2434;48.486;7.964;2023-05-07T11:39:44;3.70;;;2.83;;
4839;SDS011;2434;48.486;7.964;2023-05-07T11:42:24;5.50;;;2.60;;
4839;SDS011;2434;48.486;7.964;2023-05-07T11:44:53;4.10;;;3.10;;
4839;SDS011;2434;48.486;7.964;2023-05-07T11:47:22;6.90;;;3.90;;
4839;SDS011;2434;48.486;7.964;2023-05-07T11:49:52;7.13;;;3.03;;
4839;SDS011;2434;48.486;7.964;2023-05-07T11:52:23;5.90;;;3.10;;
4839;SDS011;2434;48.486;7.964;2023-05-07T11:54:52;5.90;;;3.47;;
4839;SDS011;2434;48.486;7.964;2023-05-07T11:57:22;4.03;;;2.80;;
4839;SDS011;2434;48.486;7.964;2023-05-07T11:59:52;2.77;;;2.17;;
4839;SDS011;2434;48.486;7.964;2023-05-07T12:02:21;5.90;;;2.43;;
4839;SDS011;2434;48.486;7.964;2023-05-07T12:04:51;10.03;;;3.17;;
4839;SDS011;2434;48.486;7.964;2023-05-07T12:07:20;4.50;;;2.77;;
4839;SDS011;2434;48.486;7.964;2023-05-07T12:09:50;4.17;;;2.67;;
4839;SDS011;2434;48.486;7.964;2023-05-07T12:12:19;4.37;;;2.90;;
4839;SDS011;2434;48.486;7.964;2023-05-07T12:14:47;4.13;;;2.43;;
4839;SDS011;2434;48.486;7.964;2023-05-07T12:17:16;5.40;;;3.40;;
4839;SDS011;2434;48.486;7.964;2023-05-07T12:19:44;7.00;;;2.70;;
4839;SDS011;2434;48.486;7.964;2023-05-07T12:22:13;5.60;;;3.17;;
4839;SDS011;2434;48.486;7.964;2023-05-07T12:24:44;7.47;;;3.40;;
4839;SDS011;2434;48.486;7.964;2023-05-07T12:27:15;5.03;;;2.77;;
4839;SDS011;2434;48.486;7.964;2023-05-07T12:29:46;2.90;;;2.60;;
4839;SDS011;2434;48.486;7.964;2023-05-07T12:32:14;3.77;;;2.83;;
4839;SDS011;2434;48.486;7.964;2023-05-07T12:34:43;5.80;;;2.70;;
4839;SDS011;2434;48.486;7.964;2023-05-07T12:37:12;3.70;;;2.63;;
4839;SDS011;2434;48.486;7.964;2023-05-07T12:39:44;5.93;;;3.60;;
4839;SDS011;2434;48.486;7.964;2023-05-07T12:42:16;6.87;;;3.50;;
4839;SDS011;2434;48.486;7.964;2023-05-07T12:44:49;3.80;;;3.00;;
4839;SDS011;2434;48.486;7.964;2023-05-07T12:47:18;4.60;;;3.30;;
4839;SDS011;2434;48.486;7.964;2023-05-07T12:49:47;5.77;;;3.50;;
4839;SDS011;2434;48.486;7.964;2023-05-07T12:52:16;4.33;;;3.40;;
4839;SDS011;2434;48.486;7.964;2023-05-07T12:54:44;7.20;;;4.17;;
4839;SDS011;2434;48.486;7.964;2023-05-07T12:57:12;6.03;;;3.67;;
4839;SDS011;2434;48.486;7.964;2023-05-07T12:59:42;7.30;;;3.73;;
4839;SDS011;2434;48.486;7.964;2023-05-07T13:02:10;4.73;;;4.23;;
4839;SDS011;2434;48.486;7.964;2023-05-07T13:04:40;9.50;;;3.93;;
4839;SDS011;2434;48.486;7.964;2023-05-07T13:07:08;5.17;;;3.83;;
4839;SDS011;2434;48.486;7.964;2023-05-07T13:09:36;8.20;;;3.80;;
4839;SDS011;2434;48.486;7.964;2023-05-07T13:12:04;7.10;;;3.80;;
4839;SDS011;2434;48.486;7.964;2023-05-07T13:14:33;9.43;;;4.70;;
4839;SDS011;2434;48.486;7.964;2023-05-07T13:17:03;6.40;;;4.07;;
4839;SDS011;2434;48.486;7.964;2023-05-07T13:19:31;4.57;;;3.57;;
4839;SDS011;2434;48.486;7.964;2023-05-07T13:21:59;7.70;;;3.60;;
4839;SDS011;2434;48.486;7.964;2023-05-07T13:24:27;7.00;;;3.50;;
4839;SDS011;2434;48.486;7.964;2023-05-07T13:26:56;4.47;;;3.70;;
4839;SDS011;2434;48.486;7.964;2023-05-07T13:29:24;6.50;;;4.03;;
4839;SDS011;2434;48.486;7.964;2023-05-07T13:31:56;5.30;;;3.17;;
4839;SDS011;2434;48.486;7.964;2023-05-07T13:34:26;6.57;;;3.40;;
4839;SDS011;2434;48.486;7.964;2023-05-07T13:36:54;5.33;;;3.07;;
4839;SDS011;2434;48.486;7.964;2023-05-07T13:39:22;4.03;;;2.90;;
4839;SDS011;2434;48.486;7.964;2023-05-07T13:41:50;3.73;;;2.30;;
4839;SDS011;2434;48.486;7.964;2023-05-07T13:44:18;4.07;;;2.33;;
4839;SDS011;2434;48.486;7.964;2023-05-07T13:46:47;7.20;;;2.77;;
4839;SDS011;2434;48.486;7.964;2023-05-07T13:49:15;2.90;;;2.17;;
4839;SDS011;2434;48.486;7.964;2023-05-07T13:51:44;7.63;;;2.20;;
4839;SDS011;2434;48.486;7.964;2023-05-07T13:54:12;4.83;;;2.20;;
4839;SDS011;2434;48.486;7.964;2023-05-07T13:56:41;2.90;;;1.90;;
4839;SDS011;2434;48.486;7.964;2023-05-07T13:59:09;3.60;;;2.47;;
4839;SDS011;2434;48.486;7.964;2023-05-07T14:01:38;8.37;;;2.70;;
4839;SDS011;2434;48.486;7.964;2023-05-07T14:04:07;5.00;;;2.40;;
4839;SDS011;2434;48.486;7.964;2023-05-07T14:06:35;6.90;;;2.90;;
4839;SDS011;2434;48.486;7.964;2023-05-07T14:09:04;3.40;;;2.57;;
4839;SDS011;2434;48.486;7.964;2023-05-07T14:11:33;2.63;;;2.43;;
4839;SDS011;2434;48.486;7.964;2023-05-07T14:14:01;3.30;;;2.07;;
4839;SDS011;2434;48.486;7.964;2023-05-07T14:16:30;5.20;;;2.70;;
4839;SDS011;2434;48.486;7.964;2023-05-07T14:18:58;2.70;;;2.40;;
4839;SDS011;2434;48.486;7.964;2023-05-07T14:21:26;4.80;;;2.70;;
4839;SDS011;2434;48.486;7.964;2023-05-07T14:23:54;6.13;;;2.90;;
4839;SDS011;2434;48.486;7.964;2023-05-07T14:26:25;3.13;;;2.33;;
4839;SDS011;2434;48.486;7.964;2023-05-07T14:28:53;4.50;;;2.40;;
4839;SDS011;2434;48.486;7.964;2023-05-07T14:31:24;3.60;;;2.20;;
4839;SDS011;2434;48.486;7.964;2023-05-07T14:33:53;5.30;;;2.70;;
4839;SDS011;2434;48.486;7.964;2023-05-07T14:36:21;3.40;;;2.17;;
4839;SDS011;2434;48.486;7.964;2023-05-07T14:38:52;4.60;;;2.60;;
4839;SDS011;2434;48.486;7.964;2023-05-07T14:41:21;2.73;;;2.07;;
4839;SDS011;2434;48.486;7.964;2023-05-07T14:43:51;6.80;;;2.20;;
4839;SDS011;2434;48.486;7.964;2023-05-07T14:46:19;6.60;;;1.90;;
4839;SDS011;2434;48.486;7.964;2023-05-07T14:48:48;5.77;;;2.13;;
4839;SDS011;2434;48.486;7.964;2023-05-07T14:51:16;4.80;;;2.00;;
4839;SDS011;2434;48.486;7.964;2023-05-07T14:53:44;3.57;;;2.07;;
4839;SDS011;2434;48.486;7.964;2023-05-07T14:56:13;2.63;;;2.00;;
4839;SDS011;2434;48.486;7.964;2023-05-07T14:58:41;3.17;;;1.90;;
4839;SDS011;2434;48.486;7.964;2023-05-07T15:01:11;6.67;;;2.27;;
4839;SDS011;2434;48.486;7.964;2023-05-07T15:03:39;2.77;;;1.90;;
4839;SDS011;2434;48.486;7.964;2023-05-07T15:06:07;3.83;;;1.77;;
4839;SDS011;2434;48.486;7.964;2023-05-07T15:08:35;5.33;;;1.47;;
4839;SDS011;2434;48.486;7.964;2023-05-07T15:11:04;4.60;;;1.93;;
4839;SDS011;2434;48.486;7.964;2023-05-07T15:13:32;2.67;;;1.57;;
4839;SDS011;2434;48.486;7.964;2023-05-07T15:16:00;4.00;;;1.97;;
4839;SDS011;2434;48.486;7.964;2023-05-07T15:18:30;3.53;;;2.57;;
4839;SDS011;2434;48.486;7.964;2023-05-07T15:20:58;8.23;;;2.10;;
4839;SDS011;2434;48.486;7.964;2023-05-07T15:23:26;3.53;;;1.87;;
4839;SDS011;2434;48.486;7.964;2023-05-07T15:25:54;4.67;;;1.60;;
4839;SDS011;2434;48.486;7.964;2023-05-07T15:28:23;2.80;;;2.10;;
4839;SDS011;2434;48.486;7.964;2023-05-07T15:30:54;3.03;;;1.90;;
4839;SDS011;2434;48.486;7.964;2023-05-07T15:33:23;4.10;;;1.77;;
4839;SDS011;2434;48.486;7.964;2023-05-07T15:35:52;3.30;;;1.43;;
4839;SDS011;2434;48.486;7.964;2023-05-07T15:38:25;2.80;;;1.40;;
4839;SDS011;2434;48.486;7.964;2023-05-07T15:40:53;2.63;;;1.70;;
4839;SDS011;2434;48.486;7.964;2023-05-07T15:43:21;2.93;;;1.50;;
4839;SDS011;2434;48.486;7.964;2023-05-07T15:45:50;2.50;;;1.80;;
4839;SDS011;2434;48.486;7.964;2023-05-07T15:48:19;2.70;;;1.80;;
4839;SDS011;2434;48.486;7.964;2023-05-07T15:50:48;2.23;;;1.40;;
4839;SDS011;2434;48.486;7.964;2023-05-07T15:53:17;2.47;;;1.40;;
4839;SDS011;2434;48.486;7.964;2023-05-07T15:55:45;3.50;;;1.60;;
4839;SDS011;2434;48.486;7.964;2023-05-07T15:58:15;2.43;;;1.70;;
4839;SDS011;2434;48.486;7.964;2023-05-07T16:00:45;3.00;;;2.13;;
4839;SDS011;2434;48.486;7.964;2023-05-07T16:03:13;4.20;;;1.90;;
4839;SDS011;2434;48.486;7.964;2023-05-07T16:05:42;2.77;;;2.10;;
4839;SDS011;2434;48.486;7.964;2023-05-07T16:08:10;4.03;;;1.80;;